sensor_id;sensor_type;location;lat;lon;timestamp;temperature;humidity
15160;DHT22;7680;48.800;9.680;2024-02-14T00:04:30;2.30;99.90
15160;DHT22;7680;48.800;9.680;2024-02-14T00:09:33;2.30;99.90
15160;DHT22;7680;48.800;9.680;2024-02-14T00:14:36;2.30;99.90
15160;DHT22;7680;48.800;9.680;2024-02-14T00:19:41;2.10;99.90
15160;DHT22;7680;48.800;9.680;2024-02-14T00:24:44;2.10;99.90
15160;DHT22;7680;48.800;9.680;2024-02-14T00:29:47;2.00;99.90
15160;DHT22;7680;48.800;9.680;2024-02-14T00:34:51;2.00;99.90
15160;DHT22;7680;48.800;9.680;2024-02-14T00:39:55;1.90;99.90
15160;DHT22;7680;48.800;9.680;2024-02-14T00:44:59;1.80;99.90
15160;DHT22;7680;48.800;9.680;2024-02-14T00:50:05;1.90;99.90
15160;DHT22;7680;48.800;9.680;2024-02-14T00:55:09;1.90;99.90
15160;DHT22;7680;48.800;9.680;2024-02-14T01:00:13;1.90;99.90
15160;DHT22;7680;48.800;9.680;2024-02-14T01:05:20;1.90;99.90
15160;DHT22;7680;48.800;9.680;2024-02-14T01:10:23;1.90;99.90
15160;DHT22;7680;48.800;9.680;2024-02-14T01:15:26;1.80;99.90
15160;DHT22;7680;48.800;9.680;2024-02-14T01:20:30;1.80;99.90
15160;DHT22;7680;48.800;9.680;2024-02-14T01:25:34;1.70;99.90
15160;DHT22;7680;48.800;9.680;2024-02-14T01:30:37;1.70;99.90
15160;DHT22;7680;48.800;9.680;2024-02-14T01:35:41;1.70;99.90
15160;DHT22;7680;48.800;9.680;2024-02-14T01:40:45;1.80;99.90
15160;DHT22;7680;48.800;9.680;2024-02-14T01:45:48;1.90;99.90
15160;DHT22;7680;48.800;9.680;2024-02-14T01:50:53;2.00;99.90
15160;DHT22;7680;48.800;9.680;2024-02-14T01:55:58;2.00;99.90
15160;DHT22;7680;48.800;9.680;2024-02-14T02:01:01;2.00;99.90
15160;DHT22;7680;48.800;9.680;2024-02-14T02:06:07;2.10;99.90
15160;DHT22;7680;48.800;9.680;2024-02-14T02:11:11;2.10;99.90
15160;DHT22;7680;48.800;9.680;2024-02-14T02:16:14;2.00;99.90
15160;DHT22;7680;48.800;9.680;2024-02-14T02:21:19;1.80;99.90
15160;DHT22;7680;48.800;9.680;2024-02-14T02:26:26;1.90;99.90
15160;DHT22;7680;48.800;9.680;2024-02-14T02:31:30;2.10;99.90
15160;DHT22;7680;48.800;9.680;2024-02-14T02:36:33;2.20;99.90
15160;DHT22;7680;48.800;9.680;2024-02-14T02:41:38;2.30;99.90
15160;DHT22;7680;48.800;9.680;2024-02-14T02:46:41;2.30;99.90
15160;DHT22;7680;48.800;9.680;2024-02-14T02:51:45;2.20;99.90
15160;DHT22;7680;48.800;9.680;2024-02-14T02:56:50;2.30;99.90
15160;DHT22;7680;48.800;9.680;2024-02-14T03:01:54;2.40;99.90
15160;DHT22;7680;48.800;9.680;2024-02-14T03:06:57;2.30;99.90
15160;DHT22;7680;48.800;9.680;2024-02-14T03:12:03;2.40;99.90
15160;DHT22;7680;48.800;9.680;2024-02-14T03:17:07;2.40;99.90
15160;DHT22;7680;48.800;9.680;2024-02-14T03:22:11;2.50;99.90
15160;DHT22;7680;48.800;9.680;2024-02-14T03:27:16;2.50;99.90
15160;DHT22;7680;48.800;9.680;2024-02-14T03:32:20;2.50;99.90
15160;DHT22;7680;48.800;9.680;2024-02-14T03:37:25;2.60;99.90
15160;DHT22;7680;48.800;9.680;2024-02-14T03:42:29;2.60;99.90
15160;DHT22;7680;48.800;9.680;2024-02-14T03:47:32;2.50;99.90
15160;DHT22;7680;48.800;9.680;2024-02-14T03:52:36;2.30;99.90
15160;DHT22;7680;48.800;9.680;2024-02-14T03:57:40;2.50;99.90
15160;DHT22;7680;48.800;9.680;2024-02-14T04:02:44;2.50;99.90
15160;DHT22;7680;48.800;9.680;2024-02-14T04:07:49;2.50;99.90
15160;DHT22;7680;48.800;9.680;2024-02-14T04:12:55;2.40;99.90
15160;DHT22;7680;48.800;9.680;2024-02-14T04:17:59;2.30;99.90
15160;DHT22;7680;48.800;9.680;2024-02-14T04:23:08;2.30;99.90
15160;DHT22;7680;48.800;9.680;2024-02-14T04:28:12;2.20;99.90
15160;DHT22;7680;48.800;9.680;2024-02-14T04:33:15;2.30;99.90
15160;DHT22;7680;48.800;9.680;2024-02-14T04:38:19;2.20;99.90
15160;DHT22;7680;48.800;9.680;2024-02-14T04:43:25;2.30;99.90
15160;DHT22;7680;48.800;9.680;2024-02-14T04:48:29;2.40;99.90
15160;DHT22;7680;48.800;9.680;2024-02-14T04:53:32;2.50;99.90
15160;DHT22;7680;48.800;9.680;2024-02-14T04:58:37;2.60;99.90
15160;DHT22;7680;48.800;9.680;2024-02-14T05:03:40;2.70;99.90
15160;DHT22;7680;48.800;9.680;2024-02-14T05:08:43;2.60;99.90
15160;DHT22;7680;48.800;9.680;2024-02-14T05:13:48;2.70;99.90
15160;DHT22;7680;48.800;9.680;2024-02-14T05:18:51;2.70;99.90
15160;DHT22;7680;48.800;9.680;2024-02-14T05:23:54;2.70;99.90
15160;DHT22;7680;48.800;9.680;2024-02-14T05:28:59;2.70;99.90
15160;DHT22;7680;48.800;9.680;2024-02-14T05:34:02;2.80;99.90
15160;DHT22;7680;48.800;9.680;2024-02-14T05:39:06;2.80;99.90
15160;DHT22;7680;48.800;9.680;2024-02-14T05:44:11;2.80;99.90
15160;DHT22;7680;48.800;9.680;2024-02-14T05:49:14;2.80;99.90
15160;DHT22;7680;48.800;9.680;2024-02-14T05:54:17;2.90;99.90
15160;DHT22;7680;48.800;9.680;2024-02-14T05:59:22;3.00;99.90
15160;DHT22;7680;48.800;9.680;2024-02-14T06:04:26;3.10;99.90
15160;DHT22;7680;48.800;9.680;2024-02-14T06:09:29;3.00;99.90
15160;DHT22;7680;48.800;9.680;2024-02-14T06:14:34;3.10;99.90
15160;DHT22;7680;48.800;9.680;2024-02-14T06:19:37;3.20;99.90
15160;DHT22;7680;48.800;9.680;2024-02-14T06:24:41;3.10;99.90
15160;DHT22;7680;48.800;9.680;2024-02-14T06:29:46;3.10;99.90
15160;DHT22;7680;48.800;9.680;2024-02-14T06:34:49;3.20;99.90
15160;DHT22;7680;48.800;9.680;2024-02-14T06:39:53;3.30;99.90
15160;DHT22;7680;48.800;9.680;2024-02-14T06:44:57;3.40;99.90
15160;DHT22;7680;48.800;9.680;2024-02-14T06:50:00;3.50;99.90
15160;DHT22;7680;48.800;9.680;2024-02-14T06:55:04;3.50;99.90
15160;DHT22;7680;48.800;9.680;2024-02-14T07:00:10;3.40;99.90
15160;DHT22;7680;48.800;9.680;2024-02-14T07:05:14;3.50;99.90
15160;DHT22;7680;48.800;9.680;2024-02-14T07:10:18;3.60;99.90
15160;DHT22;7680;48.800;9.680;2024-02-14T07:15:22;3.70;99.90
15160;DHT22;7680;48.800;9.680;2024-02-14T07:20:29;3.70;99.90
15160;DHT22;7680;48.800;9.680;2024-02-14T07:25:33;3.80;99.90
15160;DHT22;7680;48.800;9.680;2024-02-14T07:30:37;3.80;99.90
15160;DHT22;7680;48.800;9.680;2024-02-14T07:35:40;3.90;99.90
15160;DHT22;7680;48.800;9.680;2024-02-14T07:40:44;4.00;99.90
15160;DHT22;7680;48.800;9.680;2024-02-14T07:45:49;4.10;99.90
15160;DHT22;7680;48.800;9.680;2024-02-14T07:50:52;4.20;99.90
15160;DHT22;7680;48.800;9.680;2024-02-14T07:55:55;4.20;99.90
15160;DHT22;7680;48.800;9.680;2024-02-14T08:00:59;4.20;99.90
15160;DHT22;7680;48.800;9.680;2024-02-14T08:06:03;4.30;99.90
15160;DHT22;7680;48.800;9.680;2024-02-14T08:11:07;4.30;99.90
15160;DHT22;7680;48.800;9.680;2024-02-14T08:16:11;4.60;99.90
15160;DHT22;7680;48.800;9.680;2024-02-14T08:21:15;4.80;99.90
15160;DHT22;7680;48.800;9.680;2024-02-14T08:26:18;5.00;99.90
15160;DHT22;7680;48.800;9.680;2024-02-14T08:31:22;5.00;99.90
15160;DHT22;7680;48.800;9.680;2024-02-14T08:36:26;5.20;99.90
15160;DHT22;7680;48.800;9.680;2024-02-14T08:41:29;5.20;99.90
15160;DHT22;7680;48.800;9.680;2024-02-14T08:46:33;5.40;99.90
15160;DHT22;7680;48.800;9.680;2024-02-14T08:51:37;5.40;99.90
15160;DHT22;7680;48.800;9.680;2024-02-14T08:56:40;5.50;99.90
15160;DHT22;7680;48.800;9.680;2024-02-14T09:01:45;5.70;99.90
15160;DHT22;7680;48.800;9.680;2024-02-14T09:06:48;5.80;99.90
15160;DHT22;7680;48.800;9.680;2024-02-14T09:11:51;6.00;99.90
15160;DHT22;7680;48.800;9.680;2024-02-14T09:16:56;6.00;99.90
15160;DHT22;7680;48.800;9.680;2024-02-14T09:21:59;6.10;99.90
15160;DHT22;7680;48.800;9.680;2024-02-14T09:27:03;6.10;99.90
15160;DHT22;7680;48.800;9.680;2024-02-14T09:32:09;6.40;99.90
15160;DHT22;7680;48.800;9.680;2024-02-14T09:37:12;6.50;99.90
15160;DHT22;7680;48.800;9.680;2024-02-14T09:42:17;6.80;99.90
15160;DHT22;7680;48.800;9.680;2024-02-14T09:47:25;7.30;99.90
15160;DHT22;7680;48.800;9.680;2024-02-14T09:52:34;7.50;99.90
15160;DHT22;7680;48.800;9.680;2024-02-14T09:57:41;7.80;99.90
15160;DHT22;7680;48.800;9.680;2024-02-14T10:02:46;8.00;99.90
15160;DHT22;7680;48.800;9.680;2024-02-14T10:07:49;8.20;99.90
15160;DHT22;7680;48.800;9.680;2024-02-14T10:12:54;8.40;99.90
15160;DHT22;7680;48.800;9.680;2024-02-14T10:17:59;8.50;99.90
15160;DHT22;7680;48.800;9.680;2024-02-14T10:23:03;8.50;99.90
15160;DHT22;7680;48.800;9.680;2024-02-14T10:28:07;8.70;99.90
15160;DHT22;7680;48.800;9.680;2024-02-14T10:33:12;9.00;99.90
15160;DHT22;7680;48.800;9.680;2024-02-14T10:38:31;9.30;99.90
15160;DHT22;7680;48.800;9.680;2024-02-14T10:43:35;9.60;99.90
15160;DHT22;7680;48.800;9.680;2024-02-14T10:48:40;9.90;99.90
15160;DHT22;7680;48.800;9.680;2024-02-14T10:53:47;10.00;99.90
15160;DHT22;7680;48.800;9.680;2024-02-14T10:58:55;10.00;99.90
15160;DHT22;7680;48.800;9.680;2024-02-14T11:04:02;10.20;99.90
15160;DHT22;7680;48.800;9.680;2024-02-14T11:09:07;10.40;99.90
15160;DHT22;7680;48.800;9.680;2024-02-14T11:14:18;10.70;99.90
15160;DHT22;7680;48.800;9.680;2024-02-14T11:19:30;11.00;99.90
15160;DHT22;7680;48.800;9.680;2024-02-14T11:24:38;11.30;99.90
15160;DHT22;7680;48.800;9.680;2024-02-14T11:29:50;11.30;99.90
15160;DHT22;7680;48.800;9.680;2024-02-14T11:34:55;11.30;99.90
15160;DHT22;7680;48.800;9.680;2024-02-14T11:40:00;11.30;99.90
15160;DHT22;7680;48.800;9.680;2024-02-14T11:45:04;11.70;99.90
15160;DHT22;7680;48.800;9.680;2024-02-14T11:50:10;11.90;99.90
15160;DHT22;7680;48.800;9.680;2024-02-14T11:55:17;11.90;99.90
15160;DHT22;7680;48.800;9.680;2024-02-14T12:00:22;12.10;99.90
15160;DHT22;7680;48.800;9.680;2024-02-14T12:05:27;12.00;99.90
15160;DHT22;7680;48.800;9.680;2024-02-14T12:10:31;11.80;99.90
15160;DHT22;7680;48.800;9.680;2024-02-14T12:15:39;11.90;99.90
15160;DHT22;7680;48.800;9.680;2024-02-14T12:20:44;11.70;99.90
15160;DHT22;7680;48.800;9.680;2024-02-14T12:25:47;11.90;99.90
15160;DHT22;7680;48.800;9.680;2024-02-14T12:30:52;12.00;99.90
15160;DHT22;7680;48.800;9.680;2024-02-14T12:36:00;12.00;99.90
15160;DHT22;7680;48.800;9.680;2024-02-14T12:41:05;12.00;99.90
15160;DHT22;7680;48.800;9.680;2024-02-14T12:46:08;12.20;99.90
15160;DHT22;7680;48.800;9.680;2024-02-14T12:51:13;12.10;99.90
15160;DHT22;7680;48.800;9.680;2024-02-14T12:56:18;12.10;99.90
15160;DHT22;7680;48.800;9.680;2024-02-14T13:01:21;12.00;99.90
15160;DHT22;7680;48.800;9.680;2024-02-14T13:06:26;12.00;99.90
15160;DHT22;7680;48.800;9.680;2024-02-14T13:11:30;12.00;99.90
15160;DHT22;7680;48.800;9.680;2024-02-14T13:16:34;12.10;99.90
15160;DHT22;7680;48.800;9.680;2024-02-14T13:21:38;12.40;99.90
15160;DHT22;7680;48.800;9.680;2024-02-14T13:26:43;12.60;99.90
15160;DHT22;7680;48.800;9.680;2024-02-14T13:31:46;12.80;99.90
15160;DHT22;7680;48.800;9.680;2024-02-14T13:36:51;12.80;99.90
15160;DHT22;7680;48.800;9.680;2024-02-14T13:41:55;12.70;99.90
15160;DHT22;7680;48.800;9.680;2024-02-14T13:47:00;12.90;99.90
15160;DHT22;7680;48.800;9.680;2024-02-14T13:52:06;12.80;99.90
15160;DHT22;7680;48.800;9.680;2024-02-14T13:57:09;12.70;99.90
15160;DHT22;7680;48.800;9.680;2024-02-14T14:02:13;12.80;99.90
15160;DHT22;7680;48.800;9.680;2024-02-14T14:07:18;12.80;99.90
15160;DHT22;7680;48.800;9.680;2024-02-14T14:12:21;12.80;99.90
15160;DHT22;7680;48.800;9.680;2024-02-14T14:17:24;12.80;99.90
15160;DHT22;7680;48.800;9.680;2024-02-14T14:22:29;13.10;99.90
15160;DHT22;7680;48.800;9.680;2024-02-14T14:27:32;13.20;99.90
15160;DHT22;7680;48.800;9.680;2024-02-14T14:32:35;13.20;99.90
15160;DHT22;7680;48.800;9.680;2024-02-14T14:37:40;13.10;99.90
15160;DHT22;7680;48.800;9.680;2024-02-14T14:42:44;13.20;99.90
15160;DHT22;7680;48.800;9.680;2024-02-14T14:47:47;13.10;99.90
15160;DHT22;7680;48.800;9.680;2024-02-14T14:52:52;13.00;99.90
15160;DHT22;7680;48.800;9.680;2024-02-14T14:57:55;12.90;99.90
15160;DHT22;7680;48.800;9.680;2024-02-14T15:02:58;12.80;99.90
15160;DHT22;7680;48.800;9.680;2024-02-14T15:08:03;12.70;99.90
15160;DHT22;7680;48.800;9.680;2024-02-14T15:13:07;12.60;99.90
15160;DHT22;7680;48.800;9.680;2024-02-14T15:18:11;12.60;99.90
15160;DHT22;7680;48.800;9.680;2024-02-14T15:23:15;12.60;99.90
15160;DHT22;7680;48.800;9.680;2024-02-14T15:28:19;12.50;99.90
15160;DHT22;7680;48.800;9.680;2024-02-14T15:33:28;12.50;99.90
15160;DHT22;7680;48.800;9.680;2024-02-14T15:38:33;12.50;99.90
15160;DHT22;7680;48.800;9.680;2024-02-14T15:43:36;12.40;99.90
15160;DHT22;7680;48.800;9.680;2024-02-14T15:48:40;12.30;99.90
15160;DHT22;7680;48.800;9.680;2024-02-14T15:53:45;12.20;99.90
15160;DHT22;7680;48.800;9.680;2024-02-14T15:58:48;12.10;99.90
15160;DHT22;7680;48.800;9.680;2024-02-14T16:03:51;12.10;99.90
15160;DHT22;7680;48.800;9.680;2024-02-14T16:08:56;12.00;99.90
15160;DHT22;7680;48.800;9.680;2024-02-14T16:14:00;11.90;99.90
15160;DHT22;7680;48.800;9.680;2024-02-14T16:19:03;11.90;99.90
15160;DHT22;7680;48.800;9.680;2024-02-14T16:24:08;11.70;99.90
15160;DHT22;7680;48.800;9.680;2024-02-14T16:29:12;11.60;99.90
15160;DHT22;7680;48.800;9.680;2024-02-14T16:34:15;11.50;99.90
15160;DHT22;7680;48.800;9.680;2024-02-14T16:39:20;11.50;99.90
15160;DHT22;7680;48.800;9.680;2024-02-14T16:44:42;11.40;99.90
15160;DHT22;7680;48.800;9.680;2024-02-14T16:49:45;11.40;99.90
15160;DHT22;7680;48.800;9.680;2024-02-14T16:54:50;11.40;99.90
15160;DHT22;7680;48.800;9.680;2024-02-14T16:59:53;11.30;99.90
15160;DHT22;7680;48.800;9.680;2024-02-14T17:04:56;11.20;99.90
15160;DHT22;7680;48.800;9.680;2024-02-14T17:10:01;11.10;99.90
15160;DHT22;7680;48.800;9.680;2024-02-14T17:15:07;11.10;99.90
15160;DHT22;7680;48.800;9.680;2024-02-14T17:20:11;11.10;99.90
15160;DHT22;7680;48.800;9.680;2024-02-14T17:25:16;11.10;99.90
15160;DHT22;7680;48.800;9.680;2024-02-14T17:30:19;11.10;99.90
15160;DHT22;7680;48.800;9.680;2024-02-14T17:35:27;11.00;99.90
15160;DHT22;7680;48.800;9.680;2024-02-14T17:40:31;11.00;99.90
15160;DHT22;7680;48.800;9.680;2024-02-14T17:45:34;11.00;99.90
15160;DHT22;7680;48.800;9.680;2024-02-14T17:50:37;10.90;99.90
15160;DHT22;7680;48.800;9.680;2024-02-14T17:55:44;10.90;99.90
15160;DHT22;7680;48.800;9.680;2024-02-14T18:00:50;10.80;99.90
15160;DHT22;7680;48.800;9.680;2024-02-14T18:05:53;10.80;99.90
15160;DHT22;7680;48.800;9.680;2024-02-14T18:10:58;10.70;99.90
15160;DHT22;7680;48.800;9.680;2024-02-14T18:16:01;10.70;99.90
15160;DHT22;7680;48.800;9.680;2024-02-14T18:21:04;10.60;99.90
15160;DHT22;7680;48.800;9.680;2024-02-14T18:26:10;10.70;99.90
15160;DHT22;7680;48.800;9.680;2024-02-14T18:31:13;10.70;99.90
15160;DHT22;7680;48.800;9.680;2024-02-14T18:36:16;10.70;99.90
15160;DHT22;7680;48.800;9.680;2024-02-14T18:41:22;10.60;99.90
15160;DHT22;7680;48.800;9.680;2024-02-14T18:46:25;10.60;99.90
15160;DHT22;7680;48.800;9.680;2024-02-14T18:51:28;10.40;99.90
15160;DHT22;7680;48.800;9.680;2024-02-14T18:56:33;10.40;99.90
15160;DHT22;7680;48.800;9.680;2024-02-14T19:01:37;10.40;99.90
15160;DHT22;7680;48.800;9.680;2024-02-14T19:06:40;10.30;99.90
15160;DHT22;7680;48.800;9.680;2024-02-14T19:11:46;10.30;99.90
15160;DHT22;7680;48.800;9.680;2024-02-14T19:16:49;10.20;99.90
15160;DHT22;7680;48.800;9.680;2024-02-14T19:21:52;10.20;99.90
15160;DHT22;7680;48.800;9.680;2024-02-14T19:26:56;10.20;99.90
15160;DHT22;7680;48.800;9.680;2024-02-14T19:32:00;10.10;99.90
15160;DHT22;7680;48.800;9.680;2024-02-14T19:37:03;10.10;99.90
15160;DHT22;7680;48.800;9.680;2024-02-14T19:42:08;10.00;99.90
15160;DHT22;7680;48.800;9.680;2024-02-14T19:47:11;10.00;99.90
15160;DHT22;7680;48.800;9.680;2024-02-14T19:52:14;10.00;99.90
15160;DHT22;7680;48.800;9.680;2024-02-14T19:57:18;9.90;99.90
15160;DHT22;7680;48.800;9.680;2024-02-14T20:02:23;9.80;99.90
15160;DHT22;7680;48.800;9.680;2024-02-14T20:07:26;9.80;99.90
15160;DHT22;7680;48.800;9.680;2024-02-14T20:12:31;9.70;99.90
15160;DHT22;7680;48.800;9.680;2024-02-14T20:17:36;9.70;99.90
15160;DHT22;7680;48.800;9.680;2024-02-14T20:22:40;9.60;99.90
15160;DHT22;7680;48.800;9.680;2024-02-14T20:27:45;9.50;99.90
15160;DHT22;7680;48.800;9.680;2024-02-14T20:32:51;9.40;99.90
15160;DHT22;7680;48.800;9.680;2024-02-14T20:37:54;9.30;99.90
15160;DHT22;7680;48.800;9.680;2024-02-14T20:42:59;9.30;99.90
15160;DHT22;7680;48.800;9.680;2024-02-14T20:48:03;9.20;99.90
15160;DHT22;7680;48.800;9.680;2024-02-14T20:53:07;9.20;99.90
15160;DHT22;7680;48.800;9.680;2024-02-14T20:58:13;9.10;99.90
15160;DHT22;7680;48.800;9.680;2024-02-14T21:03:16;9.20;99.90
15160;DHT22;7680;48.800;9.680;2024-02-14T21:08:20;9.20;99.90
15160;DHT22;7680;48.800;9.680;2024-02-14T21:13:24;9.20;99.90
15160;DHT22;7680;48.800;9.680;2024-02-14T21:18:27;9.10;99.90
15160;DHT22;7680;48.800;9.680;2024-02-14T21:23:31;9.00;99.90
15160;DHT22;7680;48.800;9.680;2024-02-14T21:28:35;8.90;99.90
15160;DHT22;7680;48.800;9.680;2024-02-14T21:33:39;8.80;99.90
15160;DHT22;7680;48.800;9.680;2024-02-14T21:38:42;8.70;99.90
15160;DHT22;7680;48.800;9.680;2024-02-14T21:43:46;8.60;99.90
15160;DHT22;7680;48.800;9.680;2024-02-14T21:48:50;8.60;99.90
15160;DHT22;7680;48.800;9.680;2024-02-14T21:53:54;8.60;99.90
15160;DHT22;7680;48.800;9.680;2024-02-14T21:58:58;8.60;99.90
15160;DHT22;7680;48.800;9.680;2024-02-14T22:04:03;8.70;99.90
15160;DHT22;7680;48.800;9.680;2024-02-14T22:09:07;8.70;99.90
15160;DHT22;7680;48.800;9.680;2024-02-14T22:14:12;8.70;99.90
15160;DHT22;7680;48.800;9.680;2024-02-14T22:19:15;8.70;99.90
15160;DHT22;7680;48.800;9.680;2024-02-14T22:24:19;8.70;99.90
15160;DHT22;7680;48.800;9.680;2024-02-14T22:29:25;8.70;99.90
15160;DHT22;7680;48.800;9.680;2024-02-14T22:34:30;8.80;99.90
15160;DHT22;7680;48.800;9.680;2024-02-14T22:39:33;8.80;99.90
15160;DHT22;7680;48.800;9.680;2024-02-14T22:44:38;8.80;99.90
15160;DHT22;7680;48.800;9.680;2024-02-14T22:49:41;8.90;99.90
15160;DHT22;7680;48.800;9.680;2024-02-14T22:54:47;8.90;99.90
15160;DHT22;7680;48.800;9.680;2024-02-14T22:59:52;8.90;99.90
15160;DHT22;7680;48.800;9.680;2024-02-14T23:04:55;8.90;99.90
15160;DHT22;7680;48.800;9.680;2024-02-14T23:09:59;8.90;99.90
15160;DHT22;7680;48.800;9.680;2024-02-14T23:15:04;8.90;99.90
15160;DHT22;7680;48.800;9.680;2024-02-14T23:20:11;9.10;99.90
15160;DHT22;7680;48.800;9.680;2024-02-14T23:25:14;8.90;99.90
15160;DHT22;7680;48.800;9.680;2024-02-14T23:30:19;8.90;99.90
15160;DHT22;7680;48.800;9.680;2024-02-14T23:35:22;8.80;99.90
15160;DHT22;7680;48.800;9.680;2024-02-14T23:40:25;8.80;99.90
15160;DHT22;7680;48.800;9.680;2024-02-14T23:45:30;8.80;99.90
15160;DHT22;7680;48.800;9.680;2024-02-14T23:50:33;8.70;99.90
15160;DHT22;7680;48.800;9.680;2024-02-14T23:55:36;8.70;99.90
